sensor_id;sensor_type;location;lat;lon;timestamp;P1;durP1;ratioP1;P2;durP2;ratioP2
15061;SDS011;7630;50.306;8.566;2024-02-14T00:03:20;6.73;;;4.43;;
15061;SDS011;7630;50.306;8.566;2024-02-14T00:07:22;4.63;;;4.27;;
15061;SDS011;7630;50.306;8.566;2024-02-14T00:11:23;6.63;;;4.17;;
15061;SDS011;7630;50.306;8.566;2024-02-14T00:15:24;4.50;;;4.10;;
15061;SDS011;7630;50.306;8.566;2024-02-14T00:19:26;5.30;;;4.47;;
15061;SDS011;7630;50.306;8.566;2024-02-14T00:23:27;6.20;;;3.90;;
15061;SDS011;7630;50.306;8.566;2024-02-14T00:27:28;5.73;;;4.03;;
15061;SDS011;7630;50.306;8.566;2024-02-14T00:31:29;3.47;;;3.17;;
15061;SDS011;7630;50.306;8.566;2024-02-14T00:35:30;5.20;;;4.70;;
15061;SDS011;7630;50.306;8.566;2024-02-14T00:39:32;4.37;;;3.73;;
15061;SDS011;7630;50.306;8.566;2024-02-14T00:43:33;4.73;;;2.80;;
15061;SDS011;7630;50.306;8.566;2024-02-14T00:47:34;3.47;;;3.10;;
15061;SDS011;7630;50.306;8.566;2024-02-14T00:51:36;4.87;;;2.87;;
15061;SDS011;7630;50.306;8.566;2024-02-14T00:55:41;4.20;;;3.60;;
15061;SDS011;7630;50.306;8.566;2024-02-14T00:59:42;5.90;;;3.87;;
15061;SDS011;7630;50.306;8.566;2024-02-14T01:03:43;4.80;;;3.67;;
15061;SDS011;7630;50.306;8.566;2024-02-14T01:07:44;3.97;;;3.53;;
15061;SDS011;7630;50.306;8.566;2024-02-14T01:11:47;4.63;;;4.17;;
15061;SDS011;7630;50.306;8.566;2024-02-14T01:15:49;8.50;;;4.57;;
15061;SDS011;7630;50.306;8.566;2024-02-14T01:19:50;8.20;;;4.47;;
15061;SDS011;7630;50.306;8.566;2024-02-14T01:23:52;7.97;;;4.37;;
15061;SDS011;7630;50.306;8.566;2024-02-14T01:27:53;4.23;;;3.90;;
15061;SDS011;7630;50.306;8.566;2024-02-14T01:31:54;4.07;;;3.43;;
15061;SDS011;7630;50.306;8.566;2024-02-14T01:35:56;4.60;;;4.20;;
15061;SDS011;7630;50.306;8.566;2024-02-14T01:39:58;6.83;;;3.63;;
15061;SDS011;7630;50.306;8.566;2024-02-14T01:43:59;5.47;;;4.10;;
15061;SDS011;7630;50.306;8.566;2024-02-14T01:48:00;3.80;;;3.30;;
15061;SDS011;7630;50.306;8.566;2024-02-14T01:52:03;5.60;;;3.87;;
15061;SDS011;7630;50.306;8.566;2024-02-14T01:56:05;7.63;;;3.70;;
15061;SDS011;7630;50.306;8.566;2024-02-14T02:00:07;3.83;;;3.53;;
15061;SDS011;7630;50.306;8.566;2024-02-14T02:04:09;9.37;;;3.90;;
15061;SDS011;7630;50.306;8.566;2024-02-14T02:08:11;5.13;;;3.30;;
15061;SDS011;7630;50.306;8.566;2024-02-14T02:12:13;3.10;;;2.80;;
15061;SDS011;7630;50.306;8.566;2024-02-14T02:16:14;5.33;;;3.27;;
15061;SDS011;7630;50.306;8.566;2024-02-14T02:20:15;3.67;;;3.10;;
15061;SDS011;7630;50.306;8.566;2024-02-14T02:24:18;6.40;;;3.13;;
15061;SDS011;7630;50.306;8.566;2024-02-14T02:28:19;3.03;;;2.73;;
15061;SDS011;7630;50.306;8.566;2024-02-14T02:32:20;4.23;;;3.03;;
15061;SDS011;7630;50.306;8.566;2024-02-14T02:36:22;5.43;;;2.90;;
15061;SDS011;7630;50.306;8.566;2024-02-14T02:40:25;6.10;;;3.70;;
15061;SDS011;7630;50.306;8.566;2024-02-14T02:44:27;5.00;;;2.90;;
15061;SDS011;7630;50.306;8.566;2024-02-14T02:48:29;6.63;;;4.07;;
15061;SDS011;7630;50.306;8.566;2024-02-14T02:52:30;3.83;;;3.50;;
15061;SDS011;7630;50.306;8.566;2024-02-14T02:56:32;4.60;;;4.20;;
15061;SDS011;7630;50.306;8.566;2024-02-14T03:00:34;5.33;;;4.83;;
15061;SDS011;7630;50.306;8.566;2024-02-14T03:04:36;4.73;;;3.73;;
15061;SDS011;7630;50.306;8.566;2024-02-14T03:08:39;3.83;;;3.40;;
15061;SDS011;7630;50.306;8.566;2024-02-14T03:12:40;4.10;;;3.50;;
15061;SDS011;7630;50.306;8.566;2024-02-14T03:16:41;4.47;;;3.80;;
15061;SDS011;7630;50.306;8.566;2024-02-14T03:20:43;4.60;;;3.77;;
15061;SDS011;7630;50.306;8.566;2024-02-14T03:24:44;5.93;;;3.60;;
15061;SDS011;7630;50.306;8.566;2024-02-14T03:28:47;4.67;;;3.60;;
15061;SDS011;7630;50.306;8.566;2024-02-14T03:32:49;4.77;;;3.03;;
15061;SDS011;7630;50.306;8.566;2024-02-14T03:36:52;4.63;;;3.30;;
15061;SDS011;7630;50.306;8.566;2024-02-14T03:40:53;5.47;;;3.87;;
15061;SDS011;7630;50.306;8.566;2024-02-14T03:44:55;4.37;;;3.23;;
15061;SDS011;7630;50.306;8.566;2024-02-14T03:48:58;4.27;;;3.37;;
15061;SDS011;7630;50.306;8.566;2024-02-14T03:52:59;9.87;;;4.07;;
15061;SDS011;7630;50.306;8.566;2024-02-14T03:57:00;5.30;;;4.00;;
15061;SDS011;7630;50.306;8.566;2024-02-14T04:01:02;9.23;;;4.07;;
15061;SDS011;7630;50.306;8.566;2024-02-14T04:05:04;5.80;;;4.03;;
15061;SDS011;7630;50.306;8.566;2024-02-14T04:09:07;5.80;;;3.83;;
15061;SDS011;7630;50.306;8.566;2024-02-14T04:13:09;4.37;;;3.97;;
15061;SDS011;7630;50.306;8.566;2024-02-14T04:17:10;3.33;;;3.03;;
15061;SDS011;7630;50.306;8.566;2024-02-14T04:21:13;5.53;;;3.63;;
15061;SDS011;7630;50.306;8.566;2024-02-14T04:25:15;8.97;;;4.17;;
15061;SDS011;7630;50.306;8.566;2024-02-14T04:29:16;3.47;;;3.00;;
15061;SDS011;7630;50.306;8.566;2024-02-14T04:33:17;6.13;;;3.60;;
15061;SDS011;7630;50.306;8.566;2024-02-14T04:37:19;5.70;;;4.40;;
15061;SDS011;7630;50.306;8.566;2024-02-14T04:41:20;5.33;;;3.33;;
15061;SDS011;7630;50.306;8.566;2024-02-14T04:45:22;6.23;;;3.60;;
15061;SDS011;7630;50.306;8.566;2024-02-14T04:49:23;11.10;;;6.80;;
15061;SDS011;7630;50.306;8.566;2024-02-14T04:53:24;6.33;;;4.73;;
15061;SDS011;7630;50.306;8.566;2024-02-14T04:57:25;4.73;;;4.33;;
15061;SDS011;7630;50.306;8.566;2024-02-14T05:01:26;11.83;;;6.20;;
15061;SDS011;7630;50.306;8.566;2024-02-14T05:05:28;7.33;;;4.47;;
15061;SDS011;7630;50.306;8.566;2024-02-14T05:09:29;8.17;;;5.70;;
15061;SDS011;7630;50.306;8.566;2024-02-14T05:13:30;7.27;;;6.60;;
15061;SDS011;7630;50.306;8.566;2024-02-14T05:17:32;6.17;;;5.27;;
15061;SDS011;7630;50.306;8.566;2024-02-14T05:21:33;8.57;;;7.67;;
15061;SDS011;7630;50.306;8.566;2024-02-14T05:25:34;11.40;;;7.43;;
15061;SDS011;7630;50.306;8.566;2024-02-14T05:29:35;13.67;;;11.53;;
15061;SDS011;7630;50.306;8.566;2024-02-14T05:33:37;9.27;;;6.83;;
15061;SDS011;7630;50.306;8.566;2024-02-14T05:37:38;9.73;;;6.63;;
15061;SDS011;7630;50.306;8.566;2024-02-14T05:41:40;7.73;;;6.23;;
15061;SDS011;7630;50.306;8.566;2024-02-14T05:45:41;6.43;;;5.93;;
15061;SDS011;7630;50.306;8.566;2024-02-14T05:49:43;7.60;;;6.63;;
15061;SDS011;7630;50.306;8.566;2024-02-14T05:53:44;8.20;;;6.70;;
15061;SDS011;7630;50.306;8.566;2024-02-14T05:57:45;6.97;;;6.27;;
15061;SDS011;7630;50.306;8.566;2024-02-14T06:01:46;7.50;;;6.43;;
15061;SDS011;7630;50.306;8.566;2024-02-14T06:05:47;12.50;;;8.67;;
15061;SDS011;7630;50.306;8.566;2024-02-14T06:09:49;7.90;;;7.17;;
15061;SDS011;7630;50.306;8.566;2024-02-14T06:13:50;8.47;;;7.20;;
15061;SDS011;7630;50.306;8.566;2024-02-14T06:17:51;7.70;;;7.00;;
15061;SDS011;7630;50.306;8.566;2024-02-14T06:21:53;7.83;;;6.87;;
15061;SDS011;7630;50.306;8.566;2024-02-14T06:25:54;10.50;;;7.37;;
15061;SDS011;7630;50.306;8.566;2024-02-14T06:29:55;9.73;;;7.47;;
15061;SDS011;7630;50.306;8.566;2024-02-14T06:33:57;7.30;;;6.30;;
15061;SDS011;7630;50.306;8.566;2024-02-14T06:37:59;9.87;;;7.87;;
15061;SDS011;7630;50.306;8.566;2024-02-14T06:42:02;9.80;;;7.53;;
15061;SDS011;7630;50.306;8.566;2024-02-14T06:46:03;10.33;;;9.40;;
15061;SDS011;7630;50.306;8.566;2024-02-14T06:50:05;10.73;;;8.97;;
15061;SDS011;7630;50.306;8.566;2024-02-14T06:54:08;8.70;;;6.83;;
15061;SDS011;7630;50.306;8.566;2024-02-14T06:58:10;7.10;;;6.40;;
15061;SDS011;7630;50.306;8.566;2024-02-14T07:02:11;8.50;;;7.43;;
15061;SDS011;7630;50.306;8.566;2024-02-14T07:06:14;11.30;;;7.50;;
15061;SDS011;7630;50.306;8.566;2024-02-14T07:10:16;5.93;;;5.40;;
15061;SDS011;7630;50.306;8.566;2024-02-14T07:14:19;6.80;;;6.00;;
15061;SDS011;7630;50.306;8.566;2024-02-14T07:18:20;7.50;;;5.63;;
15061;SDS011;7630;50.306;8.566;2024-02-14T07:22:22;8.47;;;5.40;;
15061;SDS011;7630;50.306;8.566;2024-02-14T07:26:23;6.20;;;5.70;;
15061;SDS011;7630;50.306;8.566;2024-02-14T07:30:24;6.53;;;5.90;;
15061;SDS011;7630;50.306;8.566;2024-02-14T07:34:26;7.63;;;5.93;;
15061;SDS011;7630;50.306;8.566;2024-02-14T07:38:27;7.13;;;5.00;;
15061;SDS011;7630;50.306;8.566;2024-02-14T07:42:29;11.63;;;6.73;;
15061;SDS011;7630;50.306;8.566;2024-02-14T07:46:30;6.83;;;5.80;;
15061;SDS011;7630;50.306;8.566;2024-02-14T07:50:32;6.53;;;5.83;;
15061;SDS011;7630;50.306;8.566;2024-02-14T07:54:33;6.80;;;4.90;;
15061;SDS011;7630;50.306;8.566;2024-02-14T07:58:34;10.73;;;5.80;;
15061;SDS011;7630;50.306;8.566;2024-02-14T08:02:36;9.33;;;6.43;;
15061;SDS011;7630;50.306;8.566;2024-02-14T08:06:39;15.17;;;6.80;;
15061;SDS011;7630;50.306;8.566;2024-02-14T08:10:40;6.93;;;6.30;;
15061;SDS011;7630;50.306;8.566;2024-02-14T08:14:41;7.73;;;6.57;;
15061;SDS011;7630;50.306;8.566;2024-02-14T08:18:43;10.77;;;5.60;;
15061;SDS011;7630;50.306;8.566;2024-02-14T08:22:45;9.20;;;5.47;;
15061;SDS011;7630;50.306;8.566;2024-02-14T08:26:46;6.63;;;5.73;;
15061;SDS011;7630;50.306;8.566;2024-02-14T08:30:47;8.97;;;6.53;;
15061;SDS011;7630;50.306;8.566;2024-02-14T08:34:48;7.30;;;6.60;;
15061;SDS011;7630;50.306;8.566;2024-02-14T08:38:51;6.87;;;6.20;;
15061;SDS011;7630;50.306;8.566;2024-02-14T08:42:52;8.50;;;5.93;;
15061;SDS011;7630;50.306;8.566;2024-02-14T08:46:53;7.47;;;4.93;;
15061;SDS011;7630;50.306;8.566;2024-02-14T08:50:55;6.17;;;5.67;;
15061;SDS011;7630;50.306;8.566;2024-02-14T08:54:57;5.00;;;4.37;;
15061;SDS011;7630;50.306;8.566;2024-02-14T08:58:59;6.07;;;5.53;;
15061;SDS011;7630;50.306;8.566;2024-02-14T09:03:03;5.00;;;4.60;;
15061;SDS011;7630;50.306;8.566;2024-02-14T09:07:05;4.90;;;3.87;;
15061;SDS011;7630;50.306;8.566;2024-02-14T09:11:06;5.60;;;5.10;;
15061;SDS011;7630;50.306;8.566;2024-02-14T09:15:07;4.47;;;3.43;;
15061;SDS011;7630;50.306;8.566;2024-02-14T09:19:09;3.50;;;3.20;;
15061;SDS011;7630;50.306;8.566;2024-02-14T09:23:12;3.13;;;2.63;;
15061;SDS011;7630;50.306;8.566;2024-02-14T09:27:18;3.40;;;3.03;;
15061;SDS011;7630;50.306;8.566;2024-02-14T09:31:21;2.80;;;2.60;;
15061;SDS011;7630;50.306;8.566;2024-02-14T09:35:22;4.33;;;3.97;;
15061;SDS011;7630;50.306;8.566;2024-02-14T09:39:24;5.90;;;3.50;;
15061;SDS011;7630;50.306;8.566;2024-02-14T09:43:34;4.97;;;3.80;;
15061;SDS011;7630;50.306;8.566;2024-02-14T09:47:36;2.90;;;2.70;;
15061;SDS011;7630;50.306;8.566;2024-02-14T09:51:40;3.40;;;3.10;;
15061;SDS011;7630;50.306;8.566;2024-02-14T09:55:42;4.47;;;4.07;;
15061;SDS011;7630;50.306;8.566;2024-02-14T09:59:46;5.07;;;4.17;;
15061;SDS011;7630;50.306;8.566;2024-02-14T10:03:49;4.40;;;3.80;;
15061;SDS011;7630;50.306;8.566;2024-02-14T10:07:51;4.37;;;3.97;;
15061;SDS011;7630;50.306;8.566;2024-02-14T10:11:52;6.00;;;4.07;;
15061;SDS011;7630;50.306;8.566;2024-02-14T10:15:53;3.40;;;3.03;;
15061;SDS011;7630;50.306;8.566;2024-02-14T10:19:59;3.67;;;3.30;;
15061;SDS011;7630;50.306;8.566;2024-02-14T10:24:03;3.63;;;3.30;;
15061;SDS011;7630;50.306;8.566;2024-02-14T10:28:05;3.03;;;2.83;;
15061;SDS011;7630;50.306;8.566;2024-02-14T10:32:14;1.40;;;1.30;;
15061;SDS011;7630;50.306;8.566;2024-02-14T10:36:15;2.20;;;2.00;;
15061;SDS011;7630;50.306;8.566;2024-02-14T10:40:18;3.10;;;1.73;;
15061;SDS011;7630;50.306;8.566;2024-02-14T10:44:21;2.53;;;1.77;;
15061;SDS011;7630;50.306;8.566;2024-02-14T10:48:22;2.33;;;1.20;;
15061;SDS011;7630;50.306;8.566;2024-02-14T10:52:30;2.63;;;2.10;;
15061;SDS011;7630;50.306;8.566;2024-02-14T10:56:38;2.93;;;2.40;;
15061;SDS011;7630;50.306;8.566;2024-02-14T11:00:41;4.33;;;2.77;;
15061;SDS011;7630;50.306;8.566;2024-02-14T11:04:43;1.67;;;1.57;;
15061;SDS011;7630;50.306;8.566;2024-02-14T11:13:15;2.30;;;1.80;;
15061;SDS011;7630;50.306;8.566;2024-02-14T11:17:16;3.27;;;2.27;;
15061;SDS011;7630;50.306;8.566;2024-02-14T11:21:27;1.60;;;1.50;;
15061;SDS011;7630;50.306;8.566;2024-02-14T11:25:30;2.07;;;1.60;;
15061;SDS011;7630;50.306;8.566;2024-02-14T11:29:32;2.77;;;1.80;;
15061;SDS011;7630;50.306;8.566;2024-02-14T11:33:34;2.03;;;1.77;;
15061;SDS011;7630;50.306;8.566;2024-02-14T11:37:35;4.00;;;2.23;;
15061;SDS011;7630;50.306;8.566;2024-02-14T11:41:36;2.93;;;2.73;;
15061;SDS011;7630;50.306;8.566;2024-02-14T11:45:38;11.13;;;3.07;;
15061;SDS011;7630;50.306;8.566;2024-02-14T11:49:41;4.27;;;2.80;;
15061;SDS011;7630;50.306;8.566;2024-02-14T11:53:43;4.93;;;2.60;;
15061;SDS011;7630;50.306;8.566;2024-02-14T11:57:44;4.17;;;2.60;;
15061;SDS011;7630;50.306;8.566;2024-02-14T12:01:47;4.13;;;2.23;;
15061;SDS011;7630;50.306;8.566;2024-02-14T12:05:52;1.50;;;1.40;;
15061;SDS011;7630;50.306;8.566;2024-02-14T12:09:55;1.73;;;1.43;;
15061;SDS011;7630;50.306;8.566;2024-02-14T12:13:56;1.80;;;1.57;;
15061;SDS011;7630;50.306;8.566;2024-02-14T12:17:57;3.20;;;2.40;;
15061;SDS011;7630;50.306;8.566;2024-02-14T12:21:59;2.20;;;2.00;;
15061;SDS011;7630;50.306;8.566;2024-02-14T12:26:02;2.30;;;2.10;;
15061;SDS011;7630;50.306;8.566;2024-02-14T12:30:08;3.77;;;1.93;;
15061;SDS011;7630;50.306;8.566;2024-02-14T12:34:11;2.67;;;2.17;;
15061;SDS011;7630;50.306;8.566;2024-02-14T12:38:13;2.40;;;2.20;;
15061;SDS011;7630;50.306;8.566;2024-02-14T12:42:15;2.37;;;2.03;;
15061;SDS011;7630;50.306;8.566;2024-02-14T12:46:19;2.20;;;2.00;;
15061;SDS011;7630;50.306;8.566;2024-02-14T12:50:20;2.40;;;2.20;;
15061;SDS011;7630;50.306;8.566;2024-02-14T12:54:22;3.03;;;2.73;;
15061;SDS011;7630;50.306;8.566;2024-02-14T12:58:23;1.83;;;1.70;;
15061;SDS011;7630;50.306;8.566;2024-02-14T13:02:25;3.00;;;2.57;;
15061;SDS011;7630;50.306;8.566;2024-02-14T13:06:27;4.20;;;3.50;;
15061;SDS011;7630;50.306;8.566;2024-02-14T13:10:28;4.73;;;3.20;;
15061;SDS011;7630;50.306;8.566;2024-02-14T13:14:31;4.30;;;3.50;;
15061;SDS011;7630;50.306;8.566;2024-02-14T13:18:33;3.30;;;3.07;;
15061;SDS011;7630;50.306;8.566;2024-02-14T13:22:36;4.00;;;3.60;;
15061;SDS011;7630;50.306;8.566;2024-02-14T13:26:37;3.30;;;3.10;;
15061;SDS011;7630;50.306;8.566;2024-02-14T13:30:39;4.00;;;3.17;;
15061;SDS011;7630;50.306;8.566;2024-02-14T13:34:41;4.40;;;3.20;;
15061;SDS011;7630;50.306;8.566;2024-02-14T13:38:44;7.67;;;4.10;;
15061;SDS011;7630;50.306;8.566;2024-02-14T13:42:46;4.07;;;3.50;;
15061;SDS011;7630;50.306;8.566;2024-02-14T13:46:47;4.00;;;3.70;;
15061;SDS011;7630;50.306;8.566;2024-02-14T13:50:51;7.43;;;4.40;;
15061;SDS011;7630;50.306;8.566;2024-02-14T13:54:52;6.33;;;3.80;;
15061;SDS011;7630;50.306;8.566;2024-02-14T13:58:53;5.03;;;4.53;;
15061;SDS011;7630;50.306;8.566;2024-02-14T14:02:55;4.03;;;3.73;;
15061;SDS011;7630;50.306;8.566;2024-02-14T14:06:56;6.37;;;3.57;;
15061;SDS011;7630;50.306;8.566;2024-02-14T14:10:58;7.40;;;4.17;;
15061;SDS011;7630;50.306;8.566;2024-02-14T14:15:00;4.13;;;3.83;;
15061;SDS011;7630;50.306;8.566;2024-02-14T14:19:02;5.90;;;4.87;;
15061;SDS011;7630;50.306;8.566;2024-02-14T14:23:04;4.87;;;3.50;;
15061;SDS011;7630;50.306;8.566;2024-02-14T14:27:07;4.20;;;3.90;;
15061;SDS011;7630;50.306;8.566;2024-02-14T14:31:10;7.40;;;4.27;;
15061;SDS011;7630;50.306;8.566;2024-02-14T14:35:13;5.90;;;5.00;;
15061;SDS011;7630;50.306;8.566;2024-02-14T14:39:15;4.40;;;4.10;;
15061;SDS011;7630;50.306;8.566;2024-02-14T14:43:16;5.43;;;4.93;;
15061;SDS011;7630;50.306;8.566;2024-02-14T14:47:19;5.53;;;5.13;;
15061;SDS011;7630;50.306;8.566;2024-02-14T14:51:20;5.17;;;4.73;;
15061;SDS011;7630;50.306;8.566;2024-02-14T14:55:21;5.20;;;4.70;;
15061;SDS011;7630;50.306;8.566;2024-02-14T14:59:23;5.63;;;4.93;;
15061;SDS011;7630;50.306;8.566;2024-02-14T15:03:24;6.13;;;5.53;;
15061;SDS011;7630;50.306;8.566;2024-02-14T15:07:25;5.93;;;5.43;;
15061;SDS011;7630;50.306;8.566;2024-02-14T15:11:27;5.40;;;4.90;;
15061;SDS011;7630;50.306;8.566;2024-02-14T15:15:28;5.80;;;5.23;;
15061;SDS011;7630;50.306;8.566;2024-02-14T15:19:30;6.83;;;5.77;;
15061;SDS011;7630;50.306;8.566;2024-02-14T15:23:31;6.17;;;5.57;;
15061;SDS011;7630;50.306;8.566;2024-02-14T15:27:32;7.00;;;6.50;;
15061;SDS011;7630;50.306;8.566;2024-02-14T15:31:33;6.63;;;6.13;;
15061;SDS011;7630;50.306;8.566;2024-02-14T15:35:54;5.97;;;5.47;;
15061;SDS011;7630;50.306;8.566;2024-02-14T15:39:56;6.77;;;6.17;;
15061;SDS011;7630;50.306;8.566;2024-02-14T15:43:58;5.97;;;5.47;;
15061;SDS011;7630;50.306;8.566;2024-02-14T15:47:59;7.53;;;6.83;;
15061;SDS011;7630;50.306;8.566;2024-02-14T15:52:02;7.90;;;7.13;;
15061;SDS011;7630;50.306;8.566;2024-02-14T15:56:04;6.23;;;5.73;;
15061;SDS011;7630;50.306;8.566;2024-02-14T16:00:06;7.90;;;7.20;;
15061;SDS011;7630;50.306;8.566;2024-02-14T16:04:10;7.30;;;5.57;;
15061;SDS011;7630;50.306;8.566;2024-02-14T16:08:13;6.83;;;6.33;;
15061;SDS011;7630;50.306;8.566;2024-02-14T16:12:16;6.37;;;5.73;;
15061;SDS011;7630;50.306;8.566;2024-02-14T16:16:17;7.27;;;6.57;;
15061;SDS011;7630;50.306;8.566;2024-02-14T16:20:19;7.30;;;6.10;;
15061;SDS011;7630;50.306;8.566;2024-02-14T16:24:22;6.70;;;6.07;;
15061;SDS011;7630;50.306;8.566;2024-02-14T16:28:23;8.00;;;7.33;;
15061;SDS011;7630;50.306;8.566;2024-02-14T16:32:24;7.77;;;7.17;;
15061;SDS011;7630;50.306;8.566;2024-02-14T16:36:25;7.60;;;7.00;;
15061;SDS011;7630;50.306;8.566;2024-02-14T16:40:27;6.03;;;5.63;;
15061;SDS011;7630;50.306;8.566;2024-02-14T16:44:30;4.93;;;4.53;;
15061;SDS011;7630;50.306;8.566;2024-02-14T16:48:33;3.20;;;2.90;;
15061;SDS011;7630;50.306;8.566;2024-02-14T16:52:34;2.80;;;2.60;;
15061;SDS011;7630;50.306;8.566;2024-02-14T16:56:36;3.80;;;3.40;;
15061;SDS011;7630;50.306;8.566;2024-02-14T17:00:37;4.13;;;3.90;;
15061;SDS011;7630;50.306;8.566;2024-02-14T17:04:39;5.23;;;4.83;;
15061;SDS011;7630;50.306;8.566;2024-02-14T17:08:41;6.53;;;5.83;;
15061;SDS011;7630;50.306;8.566;2024-02-14T17:12:43;5.67;;;5.27;;
15061;SDS011;7630;50.306;8.566;2024-02-14T17:16:45;7.67;;;7.07;;
15061;SDS011;7630;50.306;8.566;2024-02-14T17:20:48;8.13;;;7.43;;
15061;SDS011;7630;50.306;8.566;2024-02-14T17:24:50;11.40;;;10.50;;
15061;SDS011;7630;50.306;8.566;2024-02-14T17:28:53;11.53;;;10.63;;
15061;SDS011;7630;50.306;8.566;2024-02-14T17:32:54;25.60;;;23.10;;
15061;SDS011;7630;50.306;8.566;2024-02-14T17:36:58;17.73;;;16.23;;
15061;SDS011;7630;50.306;8.566;2024-02-14T17:40:59;12.90;;;11.70;;
15061;SDS011;7630;50.306;8.566;2024-02-14T17:45:00;19.90;;;18.30;;
15061;SDS011;7630;50.306;8.566;2024-02-14T17:49:01;17.00;;;15.37;;
15061;SDS011;7630;50.306;8.566;2024-02-14T17:53:03;10.93;;;10.10;;
15061;SDS011;7630;50.306;8.566;2024-02-14T17:57:06;9.30;;;8.47;;
15061;SDS011;7630;50.306;8.566;2024-02-14T18:01:09;50.50;;;45.20;;
15061;SDS011;7630;50.306;8.566;2024-02-14T18:05:11;23.13;;;20.83;;
15061;SDS011;7630;50.306;8.566;2024-02-14T18:09:13;16.37;;;15.00;;
15061;SDS011;7630;50.306;8.566;2024-02-14T18:13:14;7.40;;;6.80;;
15061;SDS011;7630;50.306;8.566;2024-02-14T18:17:16;7.83;;;7.20;;
15061;SDS011;7630;50.306;8.566;2024-02-14T18:21:19;9.90;;;9.17;;
15061;SDS011;7630;50.306;8.566;2024-02-14T18:25:20;12.67;;;11.60;;
15061;SDS011;7630;50.306;8.566;2024-02-14T18:29:21;15.53;;;14.20;;
15061;SDS011;7630;50.306;8.566;2024-02-14T18:33:22;25.27;;;23.37;;
15061;SDS011;7630;50.306;8.566;2024-02-14T18:37:24;21.63;;;19.93;;
15061;SDS011;7630;50.306;8.566;2024-02-14T18:41:26;14.37;;;13.17;;
15061;SDS011;7630;50.306;8.566;2024-02-14T18:45:27;14.20;;;13.00;;
15061;SDS011;7630;50.306;8.566;2024-02-14T18:49:28;16.57;;;15.23;;
15061;SDS011;7630;50.306;8.566;2024-02-14T18:53:30;15.30;;;13.90;;
15061;SDS011;7630;50.306;8.566;2024-02-14T18:57:32;13.27;;;12.27;;
15061;SDS011;7630;50.306;8.566;2024-02-14T19:01:33;14.53;;;13.33;;
15061;SDS011;7630;50.306;8.566;2024-02-14T19:05:34;21.73;;;19.83;;
15061;SDS011;7630;50.306;8.566;2024-02-14T19:09:36;14.73;;;13.63;;
15061;SDS011;7630;50.306;8.566;2024-02-14T19:13:37;10.07;;;9.30;;
15061;SDS011;7630;50.306;8.566;2024-02-14T19:17:40;7.37;;;6.77;;
15061;SDS011;7630;50.306;8.566;2024-02-14T19:21:41;8.40;;;7.80;;
15061;SDS011;7630;50.306;8.566;2024-02-14T19:25:42;6.90;;;6.37;;
15061;SDS011;7630;50.306;8.566;2024-02-14T19:29:45;6.10;;;5.03;;
15061;SDS011;7630;50.306;8.566;2024-02-14T19:33:46;4.67;;;4.37;;
15061;SDS011;7630;50.306;8.566;2024-02-14T19:37:48;3.87;;;3.60;;
15061;SDS011;7630;50.306;8.566;2024-02-14T19:41:49;5.93;;;5.53;;
15061;SDS011;7630;50.306;8.566;2024-02-14T19:45:50;6.43;;;5.80;;
15061;SDS011;7630;50.306;8.566;2024-02-14T19:49:51;5.47;;;5.07;;
15061;SDS011;7630;50.306;8.566;2024-02-14T19:53:52;6.00;;;5.50;;
15061;SDS011;7630;50.306;8.566;2024-02-14T19:57:54;7.00;;;5.90;;
15061;SDS011;7630;50.306;8.566;2024-02-14T20:01:55;5.43;;;5.07;;
15061;SDS011;7630;50.306;8.566;2024-02-14T20:05:56;5.37;;;4.97;;
15061;SDS011;7630;50.306;8.566;2024-02-14T20:09:58;5.37;;;4.87;;
15061;SDS011;7630;50.306;8.566;2024-02-14T20:13:59;4.57;;;4.17;;
15061;SDS011;7630;50.306;8.566;2024-02-14T20:18:00;6.07;;;5.57;;
15061;SDS011;7630;50.306;8.566;2024-02-14T20:22:01;4.73;;;3.63;;
15061;SDS011;7630;50.306;8.566;2024-02-14T20:26:03;3.50;;;3.30;;
15061;SDS011;7630;50.306;8.566;2024-02-14T20:30:04;3.83;;;3.53;;
15061;SDS011;7630;50.306;8.566;2024-02-14T20:34:10;3.13;;;2.83;;
15061;SDS011;7630;50.306;8.566;2024-02-14T20:38:11;3.20;;;2.63;;
15061;SDS011;7630;50.306;8.566;2024-02-14T20:42:13;3.13;;;2.90;;
15061;SDS011;7630;50.306;8.566;2024-02-14T20:46:15;2.40;;;2.20;;
15061;SDS011;7630;50.306;8.566;2024-02-14T20:50:18;1.67;;;1.67;;
15061;SDS011;7630;50.306;8.566;2024-02-14T20:54:19;1.67;;;1.57;;
15061;SDS011;7630;50.306;8.566;2024-02-14T20:58:20;2.20;;;2.00;;
15061;SDS011;7630;50.306;8.566;2024-02-14T21:02:23;3.00;;;2.80;;
15061;SDS011;7630;50.306;8.566;2024-02-14T21:06:24;2.67;;;2.47;;
15061;SDS011;7630;50.306;8.566;2024-02-14T21:10:26;3.03;;;2.83;;
15061;SDS011;7630;50.306;8.566;2024-02-14T21:14:28;3.23;;;3.03;;
15061;SDS011;7630;50.306;8.566;2024-02-14T21:18:29;2.50;;;2.40;;
15061;SDS011;7630;50.306;8.566;2024-02-14T21:22:31;3.10;;;2.80;;
15061;SDS011;7630;50.306;8.566;2024-02-14T21:26:32;2.83;;;2.63;;
15061;SDS011;7630;50.306;8.566;2024-02-14T21:30:35;2.70;;;2.53;;
15061;SDS011;7630;50.306;8.566;2024-02-14T21:34:36;3.23;;;3.03;;
15061;SDS011;7630;50.306;8.566;2024-02-14T21:38:37;3.97;;;3.37;;
15061;SDS011;7630;50.306;8.566;2024-02-14T21:42:38;3.27;;;3.07;;
15061;SDS011;7630;50.306;8.566;2024-02-14T21:46:40;3.90;;;3.60;;
15061;SDS011;7630;50.306;8.566;2024-02-14T21:50:42;3.57;;;3.37;;
15061;SDS011;7630;50.306;8.566;2024-02-14T21:54:44;3.73;;;3.47;;
15061;SDS011;7630;50.306;8.566;2024-02-14T21:58:45;4.00;;;3.70;;
15061;SDS011;7630;50.306;8.566;2024-02-14T22:02:47;4.50;;;4.10;;
15061;SDS011;7630;50.306;8.566;2024-02-14T22:06:50;4.27;;;3.97;;
15061;SDS011;7630;50.306;8.566;2024-02-14T22:10:52;4.33;;;3.93;;
15061;SDS011;7630;50.306;8.566;2024-02-14T22:14:53;3.77;;;3.47;;
15061;SDS011;7630;50.306;8.566;2024-02-14T22:18:55;4.10;;;3.70;;
15061;SDS011;7630;50.306;8.566;2024-02-14T22:22:57;4.30;;;4.00;;
15061;SDS011;7630;50.306;8.566;2024-02-14T22:26:58;3.80;;;3.50;;
15061;SDS011;7630;50.306;8.566;2024-02-14T22:31:00;3.73;;;3.47;;
15061;SDS011;7630;50.306;8.566;2024-02-14T22:35:03;3.93;;;3.63;;
15061;SDS011;7630;50.306;8.566;2024-02-14T22:39:04;4.37;;;4.07;;
15061;SDS011;7630;50.306;8.566;2024-02-14T22:43:07;3.60;;;3.30;;
15061;SDS011;7630;50.306;8.566;2024-02-14T22:47:09;4.27;;;3.87;;
15061;SDS011;7630;50.306;8.566;2024-02-14T22:51:11;3.63;;;3.33;;
15061;SDS011;7630;50.306;8.566;2024-02-14T22:55:12;3.67;;;3.37;;
15061;SDS011;7630;50.306;8.566;2024-02-14T22:59:13;4.60;;;4.20;;
15061;SDS011;7630;50.306;8.566;2024-02-14T23:03:14;7.20;;;4.47;;
15061;SDS011;7630;50.306;8.566;2024-02-14T23:07:15;4.10;;;3.80;;
15061;SDS011;7630;50.306;8.566;2024-02-14T23:11:18;5.67;;;5.17;;
15061;SDS011;7630;50.306;8.566;2024-02-14T23:15:19;7.13;;;5.47;;
15061;SDS011;7630;50.306;8.566;2024-02-14T23:19:21;8.87;;;6.67;;
15061;SDS011;7630;50.306;8.566;2024-02-14T23:23:22;13.17;;;5.50;;
15061;SDS011;7630;50.306;8.566;2024-02-14T23:27:24;5.00;;;4.50;;
15061;SDS011;7630;50.306;8.566;2024-02-14T23:31:25;8.80;;;5.63;;
15061;SDS011;7630;50.306;8.566;2024-02-14T23:35:27;9.00;;;5.77;;
15061;SDS011;7630;50.306;8.566;2024-02-14T23:39:28;8.47;;;5.90;;
15061;SDS011;7630;50.306;8.566;2024-02-14T23:43:30;10.27;;;7.93;;
15061;SDS011;7630;50.306;8.566;2024-02-14T23:47:31;6.80;;;4.80;;
15061;SDS011;7630;50.306;8.566;2024-02-14T23:51:36;11.60;;;6.43;;
15061;SDS011;7630;50.306;8.566;2024-02-14T23:55:37;8.13;;;4.90;;
15061;SDS011;7630;50.306;8.566;2024-02-14T23:59:39;8.47;;;6.00;;
